Terminal Aerodrome Forecast
Issued by NWS

Home | Current Version | Previous Version | Text Only | Print | Product List | Glossary On
Versions: 1 2 3 4 5 6 7 8 9 10 11 12 13 14 15 16 17 18 19 20 21 22 23 24
000
FTUS46 KPQR 231732
TAFONP
TAF
KONP 231732Z 2318/2418 19015G28KT P6SM -RADZ BKN008 BKN015 OVC035
     FM232300 20022G32KT 4SM -RADZ BR BKN015 OVC025
     FM240600 19026G44KT 3SM RADZ BR SCT007 BKN011 OVC025
     FM241200 22016G26KT 5SM -RADZ BR BKN015 OVC025
     FM241500 23013KT P6SM -SHRA SCT015 BKN025 BKN040=

USA.gov is the U.S. government's official web portal to all federal, state and local government web resources and services.